Warning: Javascript must be enabled to use all the features on this page!


Page Loading - Please Wait...

Click to hideNews Bulletins

Peak Streamflow for the Nation

USGS 12194000 SKAGIT RIVER NEAR CONCRETE, WA

Skagit County, Washington
Hydrologic Unit Code 17110007
Latitude  48°31'28", Longitude 121°46'11" NAD27
Drainage area 2,737  square miles
Gage datum 130.0 feet above NGVD29
Output formats
Table
Graph
Tab-separated file
peakfq (watstore) format
Reselect output format
Water
Year
Date Gage
Height
(feet)
Stream-
flow
(cfs)
1815 1815 69.30Bm 510,0002,7,Bm
1856 1856 57.30Bm 340,0002,7,Bm
1898 1897-11-19 51.10 265,0007
1910 1909-11-30 49.10 245,0007
1918 1917-12-30 45.70 210,0007
1922 1921-12-13 47.60 228,0007
1925 1924-12-12 32.44 92,5006
1926 1925-12-23 26.30 51,6006
1927 1926-10-16 32.03 88,9006
1928 1928-01-12 32.90 95,5006
1929 1928-10-09 29.94 74,3006
1930 1930-06-07 22.70 32,2006
1931 1931-06-26 27.78 60,6006
1932 1932-02-27 39.99 147,0006
1933 1932-11-13 35.60 116,0006
1934 1933-12-22 33.60 101,0006
1935 1935-01-25 37.90 131,0006
1936 1936-06-03 27.70 60,0006
1937 1937-06-19 28.97 68,3006
1938 1937-10-28 32.16 89,6006
1939 1939-05-29 30.70 79,6006
1940 1939-12-15 25.70 48,2006
1941 1940-10-19 26.20 51,0006
1942 1941-12-02 30.17 76,3006
1943 1942-11-23 26.69 54,0006
1944 1943-12-03 28.49 65,2006
1945 1945-02-08 29.35 70,8006
1946 1945-10-25 34.00 102,0006
1947 1946-10-25 31.14 82,2006
1948 1947-10-19 32.99 95,2006
1949 1949-05-13 26.97 55,7006
1950 1949-11-27 40.80 154,0006
1951 1951-02-10 38.99 139,0006
1952 1952-06-05 24.80 43,5006
1953 1953-02-01 28.61 66,0006
1954 1953-10-31 27.39 58,0006
1955 1955-06-11 27.10 56,3006
1956 1955-11-03 34.48 106,0006
1957 1956-10-20 27.84 61,0006
1958 1958-01-17 24.38 41,4006
1959 1959-04-30 32.36 90,7006
1960 1959-11-23 32.17 89,3006
1961 1961-01-16 30.61 79,0006
1962 1962-01-03 26.82 56,0006
1963 1962-11-20 35.73 114,0006
1964 1963-10-22 29.80 73,8006
1965 1964-12-01 26.20 52,6006
1966 1966-05-06 23.43 36,8006
1967 1967-06-21 29.59 72,3006
1968 1967-10-28 31.41 84,2006
1969 1969-01-05 25.82 49,5006
1970 1969-11-04 23.77 38,4006
1971 1971-01-31 27.90 62,2006
1972 1972-07-13 32.54 91,9006
1973 1972-12-26 25.83 49,5006
1974 1974-01-16 30.75 79,9006
1975 1974-12-21 27.16 57,5006
1976 1975-12-04 36.88 122,0006
1977 1977-01-18 27.31 58,4006
1978 1977-12-02 29.27 70,3006
1979 1978-11-08 25.19 46,0006
1980 1979-12-18 38.57 136,0006
1981 1980-12-26 40.19 149,0006
1982 1982-06-21 26.20 51,7006
1983 1982-12-04 33.82 101,0006
1984 1984-01-05 34.94 109,0006
1985 1985-06-07 25.20 46,1006
1986 1986-01-19 32.75 93,4006
1987 1986-11-24 31.30 83,5006
1988 1987-11-24 23.96 39,6006
1989 1988-10-16 29.86 74,1006
1990 1989-12-04 36.39 119,0006
1991 1990-11-10 40.20 149,0006
1992 1992-04-29 26.46 53,3006
1993 1993-05-13 23.95 39,3006
1994 1994-03-03 23.39 36,5006
1995 1994-12-20 27.55 59,8006
1996 1995-11-29 41.57 160,0006
1997 1997-07-09 32.46 91,4006
1998 1997-10-05 30.26 76,7006
1999 1998-12-13 27.81 61,4006
2000 1999-11-12 34.15 103,0006
2001 2000-10-20 22.19 30,9006
2002 2002-01-08 33.06 94,3006
2003 2003-01-26 28.60 65,5006
2004 2003-10-21 42.21 166,0006
2005 2004-12-11 33.78 99,4006
2006 2006-01-10 27.01 56,3006
2007 2006-11-06 39.79 145,0006
2008 2007-12-04 30.60 77,9006
2009 2008-11-12 28.84 67,0006
2010 2009-11-17 27.60 59,7006
2011 2010-12-12 31.22 81,9006
2012 2012-06-18 26.35 52,7006
2013 2013-09-29 25.34 47,3006
2014 2014-03-09 25.26 46,9006
2015 2014-11-28 32.68 91,7006
2016 2015-11-18 33.27 95,8006
2017 2016-10-20 27.60 59,7006
2018 2017-11-23 34.68 106,0006
2019 2018-11-27 26.95 56,0006
2020 2020-02-01 30.75 78,9006
?
  Peak Gage-Height Qualification Codes.
?
  Peak Streamflow Qualification Codes.